sensor_id;sensor_type;location;lat;lon;timestamp;P1;durP1;ratioP1;P2;durP2;ratioP2
48317;SDS011;34127;47.412;9.730;2023-09-30T00:02:11;28.13;;;12.35;;
48317;SDS011;34127;47.412;9.730;2023-09-30T00:04:38;27.05;;;12.00;;
48317;SDS011;34127;47.412;9.730;2023-09-30T00:07:04;29.50;;;13.45;;
48317;SDS011;34127;47.412;9.730;2023-09-30T00:09:31;28.23;;;13.13;;
48317;SDS011;34127;47.412;9.730;2023-09-30T00:11:57;26.02;;;11.50;;
48317;SDS011;34127;47.412;9.730;2023-09-30T00:14:25;25.35;;;11.10;;
48317;SDS011;34127;47.412;9.730;2023-09-30T00:16:51;29.15;;;11.23;;
48317;SDS011;34127;47.412;9.730;2023-09-30T00:19:17;24.95;;;10.20;;
48317;SDS011;34127;47.412;9.730;2023-09-30T00:21:43;25.80;;;11.00;;
48317;SDS011;34127;47.412;9.730;2023-09-30T00:24:09;25.92;;;10.38;;
48317;SDS011;34127;47.412;9.730;2023-09-30T00:26:35;30.10;;;12.07;;
48317;SDS011;34127;47.412;9.730;2023-09-30T00:29:01;25.38;;;11.07;;
48317;SDS011;34127;47.412;9.730;2023-09-30T00:31:31;28.73;;;11.35;;
48317;SDS011;34127;47.412;9.730;2023-09-30T00:34:00;21.92;;;10.13;;
48317;SDS011;34127;47.412;9.730;2023-09-30T00:36:27;27.27;;;12.23;;
48317;SDS011;34127;47.412;9.730;2023-09-30T00:38:53;30.95;;;12.35;;
48317;SDS011;34127;47.412;9.730;2023-09-30T00:41:19;27.75;;;12.50;;
48317;SDS011;34127;47.412;9.730;2023-09-30T00:43:46;24.48;;;11.60;;
48317;SDS011;34127;47.412;9.730;2023-09-30T00:46:34;26.92;;;11.70;;
48317;SDS011;34127;47.412;9.730;2023-09-30T00:49:01;26.88;;;11.88;;
48317;SDS011;34127;47.412;9.730;2023-09-30T00:51:28;27.75;;;12.18;;
48317;SDS011;34127;47.412;9.730;2023-09-30T00:53:56;24.67;;;11.05;;
48317;SDS011;34127;47.412;9.730;2023-09-30T00:56:23;27.73;;;11.80;;
48317;SDS011;34127;47.412;9.730;2023-09-30T00:58:51;28.38;;;11.43;;
48317;SDS011;34127;47.412;9.730;2023-09-30T01:01:18;27.13;;;11.70;;
48317;SDS011;34127;47.412;9.730;2023-09-30T01:03:45;28.38;;;11.70;;
48317;SDS011;34127;47.412;9.730;2023-09-30T01:06:11;30.70;;;11.85;;
48317;SDS011;34127;47.412;9.730;2023-09-30T01:08:37;25.55;;;11.50;;
48317;SDS011;34127;47.412;9.730;2023-09-30T01:11:04;24.98;;;11.05;;
48317;SDS011;34127;47.412;9.730;2023-09-30T01:13:33;25.65;;;10.52;;
48317;SDS011;34127;47.412;9.730;2023-09-30T01:16:06;24.17;;;9.90;;
48317;SDS011;34127;47.412;9.730;2023-09-30T01:18:34;23.08;;;10.88;;
48317;SDS011;34127;47.412;9.730;2023-09-30T01:21:04;25.52;;;11.13;;
48317;SDS011;34127;47.412;9.730;2023-09-30T01:23:33;24.52;;;10.25;;
48317;SDS011;34127;47.412;9.730;2023-09-30T01:26:03;29.20;;;11.60;;
48317;SDS011;34127;47.412;9.730;2023-09-30T01:28:32;28.85;;;12.43;;
48317;SDS011;34127;47.412;9.730;2023-09-30T01:30:58;25.10;;;10.52;;
48317;SDS011;34127;47.412;9.730;2023-09-30T01:33:24;25.08;;;10.68;;
48317;SDS011;34127;47.412;9.730;2023-09-30T01:35:51;27.05;;;11.55;;
48317;SDS011;34127;47.412;9.730;2023-09-30T01:38:17;29.05;;;11.63;;
48317;SDS011;34127;47.412;9.730;2023-09-30T01:40:43;27.33;;;11.30;;
48317;SDS011;34127;47.412;9.730;2023-09-30T01:43:09;28.52;;;12.15;;
48317;SDS011;34127;47.412;9.730;2023-09-30T01:45:39;26.40;;;11.07;;
48317;SDS011;34127;47.412;9.730;2023-09-30T01:48:06;28.08;;;12.20;;
48317;SDS011;34127;47.412;9.730;2023-09-30T01:50:32;25.67;;;11.23;;
48317;SDS011;34127;47.412;9.730;2023-09-30T01:52:58;27.98;;;11.80;;
48317;SDS011;34127;47.412;9.730;2023-09-30T01:55:25;28.08;;;12.43;;
48317;SDS011;34127;47.412;9.730;2023-09-30T01:57:51;27.58;;;11.80;;
48317;SDS011;34127;47.412;9.730;2023-09-30T02:00:17;27.45;;;11.00;;
48317;SDS011;34127;47.412;9.730;2023-09-30T02:02:43;27.73;;;11.88;;
48317;SDS011;34127;47.412;9.730;2023-09-30T02:05:09;26.23;;;11.35;;
48317;SDS011;34127;47.412;9.730;2023-09-30T02:07:36;28.30;;;12.20;;
48317;SDS011;34127;47.412;9.730;2023-09-30T02:10:03;23.17;;;10.23;;
48317;SDS011;34127;47.412;9.730;2023-09-30T02:12:29;27.60;;;11.43;;
48317;SDS011;34127;47.412;9.730;2023-09-30T02:14:55;25.20;;;11.60;;
48317;SDS011;34127;47.412;9.730;2023-09-30T02:17:21;25.48;;;10.73;;
48317;SDS011;34127;47.412;9.730;2023-09-30T02:19:48;28.10;;;11.23;;
48317;SDS011;34127;47.412;9.730;2023-09-30T02:22:15;27.02;;;12.18;;
48317;SDS011;34127;47.412;9.730;2023-09-30T02:24:41;27.80;;;11.93;;
48317;SDS011;34127;47.412;9.730;2023-09-30T02:27:07;24.58;;;10.93;;
48317;SDS011;34127;47.412;9.730;2023-09-30T02:29:33;31.08;;;12.30;;
48317;SDS011;34127;47.412;9.730;2023-09-30T02:32:00;26.65;;;11.15;;
48317;SDS011;34127;47.412;9.730;2023-09-30T02:34:26;25.10;;;10.55;;
48317;SDS011;34127;47.412;9.730;2023-09-30T02:36:54;29.17;;;11.90;;
48317;SDS011;34127;47.412;9.730;2023-09-30T02:39:21;31.90;;;11.77;;
48317;SDS011;34127;47.412;9.730;2023-09-30T02:41:47;26.95;;;11.02;;
48317;SDS011;34127;47.412;9.730;2023-09-30T02:44:15;25.75;;;10.48;;
48317;SDS011;34127;47.412;9.730;2023-09-30T02:46:41;28.15;;;11.52;;
48317;SDS011;34127;47.412;9.730;2023-09-30T02:49:07;25.88;;;10.63;;
48317;SDS011;34127;47.412;9.730;2023-09-30T02:51:33;24.13;;;11.18;;
48317;SDS011;34127;47.412;9.730;2023-09-30T02:54:00;27.40;;;11.32;;
48317;SDS011;34127;47.412;9.730;2023-09-30T02:56:26;28.15;;;10.95;;
48317;SDS011;34127;47.412;9.730;2023-09-30T02:58:56;28.58;;;11.93;;
48317;SDS011;34127;47.412;9.730;2023-09-30T03:01:24;27.83;;;11.15;;
48317;SDS011;34127;47.412;9.730;2023-09-30T03:03:51;26.85;;;11.65;;
48317;SDS011;34127;47.412;9.730;2023-09-30T03:06:17;25.33;;;10.38;;
48317;SDS011;34127;47.412;9.730;2023-09-30T03:08:44;24.85;;;10.70;;
48317;SDS011;34127;47.412;9.730;2023-09-30T03:11:11;29.08;;;11.25;;
48317;SDS011;34127;47.412;9.730;2023-09-30T03:13:38;25.67;;;10.90;;
48317;SDS011;34127;47.412;9.730;2023-09-30T03:16:07;25.63;;;10.30;;
48317;SDS011;34127;47.412;9.730;2023-09-30T03:18:34;25.92;;;10.80;;
48317;SDS011;34127;47.412;9.730;2023-09-30T03:21:00;22.58;;;10.63;;
48317;SDS011;34127;47.412;9.730;2023-09-30T03:23:27;22.92;;;10.27;;
48317;SDS011;34127;47.412;9.730;2023-09-30T03:25:58;25.63;;;11.18;;
48317;SDS011;34127;47.412;9.730;2023-09-30T03:28:24;26.45;;;10.55;;
48317;SDS011;34127;47.412;9.730;2023-09-30T03:30:50;25.92;;;11.75;;
48317;SDS011;34127;47.412;9.730;2023-09-30T03:33:16;26.45;;;10.68;;
48317;SDS011;34127;47.412;9.730;2023-09-30T03:35:43;28.15;;;11.07;;
48317;SDS011;34127;47.412;9.730;2023-09-30T03:38:09;24.27;;;10.35;;
48317;SDS011;34127;47.412;9.730;2023-09-30T03:40:36;28.58;;;10.85;;
48317;SDS011;34127;47.412;9.730;2023-09-30T03:43:03;26.70;;;11.52;;
48317;SDS011;34127;47.412;9.730;2023-09-30T03:45:33;26.65;;;10.73;;
48317;SDS011;34127;47.412;9.730;2023-09-30T03:48:02;30.70;;;10.98;;
48317;SDS011;34127;47.412;9.730;2023-09-30T03:50:28;28.02;;;10.63;;
48317;SDS011;34127;47.412;9.730;2023-09-30T03:53:04;26.65;;;10.70;;
48317;SDS011;34127;47.412;9.730;2023-09-30T03:55:33;25.98;;;9.73;;
48317;SDS011;34127;47.412;9.730;2023-09-30T03:57:59;25.42;;;11.43;;
48317;SDS011;34127;47.412;9.730;2023-09-30T04:00:28;24.08;;;9.55;;
48317;SDS011;34127;47.412;9.730;2023-09-30T04:02:54;27.40;;;10.73;;
48317;SDS011;34127;47.412;9.730;2023-09-30T04:05:23;23.67;;;10.45;;
48317;SDS011;34127;47.412;9.730;2023-09-30T04:07:59;28.73;;;10.30;;
48317;SDS011;34127;47.412;9.730;2023-09-30T04:10:25;24.13;;;10.32;;
48317;SDS011;34127;47.412;9.730;2023-09-30T04:12:52;26.35;;;10.93;;
48317;SDS011;34127;47.412;9.730;2023-09-30T04:15:19;24.30;;;9.80;;
48317;SDS011;34127;47.412;9.730;2023-09-30T04:17:45;23.73;;;9.88;;
48317;SDS011;34127;47.412;9.730;2023-09-30T04:20:11;25.67;;;10.40;;
48317;SDS011;34127;47.412;9.730;2023-09-30T04:22:41;23.23;;;10.25;;
48317;SDS011;34127;47.412;9.730;2023-09-30T04:25:13;26.35;;;10.38;;
48317;SDS011;34127;47.412;9.730;2023-09-30T04:27:41;25.60;;;9.93;;
48317;SDS011;34127;47.412;9.730;2023-09-30T04:30:08;29.05;;;10.95;;
48317;SDS011;34127;47.412;9.730;2023-09-30T04:32:36;25.17;;;10.43;;
48317;SDS011;34127;47.412;9.730;2023-09-30T04:35:04;22.48;;;9.95;;
48317;SDS011;34127;47.412;9.730;2023-09-30T04:37:30;22.92;;;9.43;;
48317;SDS011;34127;47.412;9.730;2023-09-30T04:39:56;22.65;;;9.95;;
48317;SDS011;34127;47.412;9.730;2023-09-30T04:42:23;26.23;;;10.40;;
48317;SDS011;34127;47.412;9.730;2023-09-30T04:44:51;24.08;;;9.70;;
48317;SDS011;34127;47.412;9.730;2023-09-30T04:47:17;27.08;;;10.63;;
48317;SDS011;34127;47.412;9.730;2023-09-30T04:49:47;24.17;;;10.20;;
48317;SDS011;34127;47.412;9.730;2023-09-30T04:52:13;24.73;;;10.35;;
48317;SDS011;34127;47.412;9.730;2023-09-30T04:54:39;27.95;;;10.82;;
48317;SDS011;34127;47.412;9.730;2023-09-30T04:57:05;26.38;;;9.95;;
48317;SDS011;34127;47.412;9.730;2023-09-30T04:59:32;24.70;;;10.23;;
48317;SDS011;34127;47.412;9.730;2023-09-30T05:01:58;23.58;;;9.40;;
48317;SDS011;34127;47.412;9.730;2023-09-30T05:04:25;25.42;;;11.00;;
48317;SDS011;34127;47.412;9.730;2023-09-30T05:06:51;25.48;;;10.30;;
48317;SDS011;34127;47.412;9.730;2023-09-30T05:09:18;25.38;;;11.23;;
48317;SDS011;34127;47.412;9.730;2023-09-30T05:11:44;24.55;;;10.60;;
48317;SDS011;34127;47.412;9.730;2023-09-30T05:14:10;26.08;;;10.80;;
48317;SDS011;34127;47.412;9.730;2023-09-30T05:16:37;24.38;;;10.70;;
48317;SDS011;34127;47.412;9.730;2023-09-30T05:19:03;28.42;;;11.55;;
48317;SDS011;34127;47.412;9.730;2023-09-30T05:21:29;26.65;;;10.75;;
48317;SDS011;34127;47.412;9.730;2023-09-30T05:23:56;23.77;;;10.57;;
48317;SDS011;34127;47.412;9.730;2023-09-30T05:26:22;25.55;;;10.73;;
48317;SDS011;34127;47.412;9.730;2023-09-30T05:28:48;23.48;;;10.18;;
48317;SDS011;34127;47.412;9.730;2023-09-30T05:31:14;24.02;;;10.07;;
48317;SDS011;34127;47.412;9.730;2023-09-30T05:33:41;22.15;;;9.07;;
48317;SDS011;34127;47.412;9.730;2023-09-30T05:36:07;24.38;;;9.88;;
48317;SDS011;34127;47.412;9.730;2023-09-30T05:38:33;25.52;;;10.43;;
48317;SDS011;34127;47.412;9.730;2023-09-30T05:40:59;23.13;;;9.95;;
48317;SDS011;34127;47.412;9.730;2023-09-30T05:43:26;24.83;;;10.52;;
48317;SDS011;34127;47.412;9.730;2023-09-30T05:45:52;24.27;;;10.88;;
48317;SDS011;34127;47.412;9.730;2023-09-30T05:48:22;24.45;;;10.02;;
48317;SDS011;34127;47.412;9.730;2023-09-30T05:50:49;28.20;;;10.88;;
48317;SDS011;34127;47.412;9.730;2023-09-30T05:53:15;26.55;;;11.20;;
48317;SDS011;34127;47.412;9.730;2023-09-30T05:55:41;24.73;;;10.15;;
48317;SDS011;34127;47.412;9.730;2023-09-30T05:58:12;23.83;;;9.88;;
48317;SDS011;34127;47.412;9.730;2023-09-30T06:00:39;27.25;;;11.00;;
48317;SDS011;34127;47.412;9.730;2023-09-30T06:03:07;25.77;;;10.85;;
48317;SDS011;34127;47.412;9.730;2023-09-30T06:05:33;24.85;;;9.63;;
48317;SDS011;34127;47.412;9.730;2023-09-30T06:08:00;24.65;;;10.15;;
48317;SDS011;34127;47.412;9.730;2023-09-30T06:10:30;23.63;;;9.23;;
48317;SDS011;34127;47.412;9.730;2023-09-30T06:12:56;25.73;;;10.35;;
48317;SDS011;34127;47.412;9.730;2023-09-30T06:15:26;22.33;;;9.90;;
48317;SDS011;34127;47.412;9.730;2023-09-30T06:17:53;24.80;;;10.07;;
48317;SDS011;34127;47.412;9.730;2023-09-30T06:20:20;23.35;;;10.10;;
48317;SDS011;34127;47.412;9.730;2023-09-30T06:22:47;24.42;;;10.30;;
48317;SDS011;34127;47.412;9.730;2023-09-30T06:25:19;22.33;;;10.25;;
48317;SDS011;34127;47.412;9.730;2023-09-30T06:27:47;24.80;;;10.57;;
48317;SDS011;34127;47.412;9.730;2023-09-30T06:30:14;25.42;;;9.32;;
48317;SDS011;34127;47.412;9.730;2023-09-30T06:32:41;23.83;;;9.98;;
48317;SDS011;34127;47.412;9.730;2023-09-30T06:35:07;20.70;;;9.18;;
48317;SDS011;34127;47.412;9.730;2023-09-30T06:37:39;24.27;;;10.20;;
48317;SDS011;34127;47.412;9.730;2023-09-30T06:40:09;21.83;;;9.30;;
48317;SDS011;34127;47.412;9.730;2023-09-30T06:42:39;23.52;;;9.93;;
48317;SDS011;34127;47.412;9.730;2023-09-30T06:45:05;24.10;;;9.15;;
48317;SDS011;34127;47.412;9.730;2023-09-30T06:47:32;24.27;;;9.60;;
48317;SDS011;34127;47.412;9.730;2023-09-30T06:50:01;24.17;;;10.35;;
48317;SDS011;34127;47.412;9.730;2023-09-30T06:52:32;23.08;;;9.82;;
48317;SDS011;34127;47.412;9.730;2023-09-30T06:54:59;22.00;;;9.65;;
48317;SDS011;34127;47.412;9.730;2023-09-30T06:57:25;22.92;;;9.18;;
48317;SDS011;34127;47.412;9.730;2023-09-30T06:59:51;21.33;;;9.05;;
48317;SDS011;34127;47.412;9.730;2023-09-30T07:02:18;23.00;;;9.07;;
48317;SDS011;34127;47.412;9.730;2023-09-30T07:04:44;23.33;;;10.15;;
48317;SDS011;34127;47.412;9.730;2023-09-30T07:07:10;22.10;;;9.95;;
48317;SDS011;34127;47.412;9.730;2023-09-30T07:09:36;21.85;;;8.95;;
48317;SDS011;34127;47.412;9.730;2023-09-30T07:12:02;21.10;;;9.07;;
48317;SDS011;34127;47.412;9.730;2023-09-30T07:14:29;21.08;;;8.73;;
48317;SDS011;34127;47.412;9.730;2023-09-30T07:16:56;18.50;;;8.43;;
48317;SDS011;34127;47.412;9.730;2023-09-30T07:19:23;21.48;;;8.55;;
48317;SDS011;34127;47.412;9.730;2023-09-30T07:21:49;21.27;;;8.80;;
48317;SDS011;34127;47.412;9.730;2023-09-30T07:24:16;21.90;;;9.43;;
48317;SDS011;34127;47.412;9.730;2023-09-30T07:26:42;21.23;;;9.18;;
48317;SDS011;34127;47.412;9.730;2023-09-30T07:29:08;20.48;;;8.48;;
48317;SDS011;34127;47.412;9.730;2023-09-30T07:31:35;23.40;;;8.82;;
48317;SDS011;34127;47.412;9.730;2023-09-30T07:34:02;20.00;;;8.80;;
48317;SDS011;34127;47.412;9.730;2023-09-30T07:36:28;21.60;;;8.63;;
48317;SDS011;34127;47.412;9.730;2023-09-30T07:38:54;20.90;;;9.13;;
48317;SDS011;34127;47.412;9.730;2023-09-30T07:41:20;23.77;;;9.55;;
48317;SDS011;34127;47.412;9.730;2023-09-30T07:43:47;19.40;;;8.65;;
48317;SDS011;34127;47.412;9.730;2023-09-30T07:46:13;19.75;;;8.30;;
48317;SDS011;34127;47.412;9.730;2023-09-30T07:48:40;21.50;;;8.55;;
48317;SDS011;34127;47.412;9.730;2023-09-30T07:51:06;21.58;;;8.52;;
48317;SDS011;34127;47.412;9.730;2023-09-30T07:53:38;21.88;;;8.73;;
48317;SDS011;34127;47.412;9.730;2023-09-30T07:56:06;24.42;;;9.50;;
48317;SDS011;34127;47.412;9.730;2023-09-30T07:58:33;23.08;;;8.57;;
48317;SDS011;34127;47.412;9.730;2023-09-30T08:00:59;22.48;;;8.90;;
48317;SDS011;34127;47.412;9.730;2023-09-30T08:03:27;23.52;;;8.02;;
48317;SDS011;34127;47.412;9.730;2023-09-30T08:05:53;19.88;;;8.15;;
48317;SDS011;34127;47.412;9.730;2023-09-30T08:08:19;20.63;;;8.50;;
48317;SDS011;34127;47.412;9.730;2023-09-30T08:10:46;19.90;;;8.45;;
48317;SDS011;34127;47.412;9.730;2023-09-30T08:13:13;20.67;;;8.18;;
48317;SDS011;34127;47.412;9.730;2023-09-30T08:15:39;21.65;;;9.18;;
48317;SDS011;34127;47.412;9.730;2023-09-30T08:18:05;19.33;;;8.30;;
48317;SDS011;34127;47.412;9.730;2023-09-30T08:20:33;18.15;;;8.43;;
48317;SDS011;34127;47.412;9.730;2023-09-30T08:22:59;19.27;;;7.93;;
48317;SDS011;34127;47.412;9.730;2023-09-30T08:25:25;18.75;;;8.18;;
48317;SDS011;34127;47.412;9.730;2023-09-30T08:27:52;19.65;;;8.43;;
48317;SDS011;34127;47.412;9.730;2023-09-30T08:30:18;19.30;;;8.23;;
48317;SDS011;34127;47.412;9.730;2023-09-30T08:32:45;22.75;;;9.68;;
48317;SDS011;34127;47.412;9.730;2023-09-30T08:35:11;19.25;;;8.13;;
48317;SDS011;34127;47.412;9.730;2023-09-30T08:37:39;19.40;;;8.35;;
48317;SDS011;34127;47.412;9.730;2023-09-30T08:40:05;19.95;;;8.07;;
48317;SDS011;34127;47.412;9.730;2023-09-30T08:42:34;20.10;;;8.55;;
48317;SDS011;34127;47.412;9.730;2023-09-30T08:45:01;19.02;;;7.97;;
48317;SDS011;34127;47.412;9.730;2023-09-30T08:47:27;19.20;;;8.38;;
48317;SDS011;34127;47.412;9.730;2023-09-30T08:49:54;20.92;;;8.30;;
48317;SDS011;34127;47.412;9.730;2023-09-30T08:52:22;17.95;;;7.60;;
48317;SDS011;34127;47.412;9.730;2023-09-30T08:54:49;16.83;;;7.43;;
48317;SDS011;34127;47.412;9.730;2023-09-30T08:57:15;18.58;;;8.50;;
48317;SDS011;34127;47.412;9.730;2023-09-30T08:59:44;18.98;;;8.55;;
48317;SDS011;34127;47.412;9.730;2023-09-30T09:02:12;18.42;;;8.20;;
48317;SDS011;34127;47.412;9.730;2023-09-30T09:04:38;18.50;;;7.72;;
48317;SDS011;34127;47.412;9.730;2023-09-30T09:07:04;20.88;;;8.32;;
48317;SDS011;34127;47.412;9.730;2023-09-30T09:09:31;18.77;;;7.63;;
48317;SDS011;34127;47.412;9.730;2023-09-30T09:11:57;18.02;;;8.00;;
48317;SDS011;34127;47.412;9.730;2023-09-30T09:14:37;17.77;;;8.02;;
48317;SDS011;34127;47.412;9.730;2023-09-30T09:17:05;20.20;;;8.18;;
48317;SDS011;34127;47.412;9.730;2023-09-30T09:19:32;19.60;;;8.50;;
48317;SDS011;34127;47.412;9.730;2023-09-30T09:21:59;20.98;;;8.18;;
48317;SDS011;34127;47.412;9.730;2023-09-30T09:24:36;21.13;;;8.82;;
48317;SDS011;34127;47.412;9.730;2023-09-30T09:27:11;18.95;;;7.60;;
48317;SDS011;34127;47.412;9.730;2023-09-30T09:29:40;18.77;;;8.35;;
48317;SDS011;34127;47.412;9.730;2023-09-30T09:32:08;22.45;;;8.48;;
48317;SDS011;34127;47.412;9.730;2023-09-30T09:34:35;18.63;;;7.85;;
48317;SDS011;34127;47.412;9.730;2023-09-30T09:37:12;22.20;;;8.73;;
48317;SDS011;34127;47.412;9.730;2023-09-30T09:39:39;19.98;;;8.07;;
48317;SDS011;34127;47.412;9.730;2023-09-30T09:42:05;17.73;;;8.30;;
48317;SDS011;34127;47.412;9.730;2023-09-30T09:44:31;18.05;;;8.32;;
48317;SDS011;34127;47.412;9.730;2023-09-30T09:46:59;20.15;;;8.35;;
48317;SDS011;34127;47.412;9.730;2023-09-30T09:49:28;21.85;;;9.02;;
48317;SDS011;34127;47.412;9.730;2023-09-30T09:51:55;20.20;;;8.77;;
48317;SDS011;34127;47.412;9.730;2023-09-30T09:54:23;21.85;;;9.00;;
48317;SDS011;34127;47.412;9.730;2023-09-30T09:56:49;21.48;;;8.45;;
48317;SDS011;34127;47.412;9.730;2023-09-30T09:59:16;18.05;;;7.32;;
48317;SDS011;34127;47.412;9.730;2023-09-30T10:01:44;20.73;;;7.45;;
48317;SDS011;34127;47.412;9.730;2023-09-30T10:04:10;18.10;;;7.30;;
48317;SDS011;34127;47.412;9.730;2023-09-30T10:06:40;20.20;;;7.90;;
48317;SDS011;34127;47.412;9.730;2023-09-30T10:09:09;20.83;;;8.48;;
48317;SDS011;34127;47.412;9.730;2023-09-30T10:11:35;20.05;;;7.82;;
48317;SDS011;34127;47.412;9.730;2023-09-30T10:14:02;18.85;;;8.23;;
48317;SDS011;34127;47.412;9.730;2023-09-30T10:19:22;15.93;;;6.95;;
48317;SDS011;34127;47.412;9.730;2023-09-30T10:24:34;19.02;;;8.18;;
48317;SDS011;34127;47.412;9.730;2023-09-30T10:29:45;18.42;;;7.75;;
48317;SDS011;34127;47.412;9.730;2023-09-30T10:32:12;19.20;;;7.55;;
48317;SDS011;34127;47.412;9.730;2023-09-30T10:34:39;18.45;;;7.47;;
48317;SDS011;34127;47.412;9.730;2023-09-30T10:37:21;15.10;;;6.40;;
48317;SDS011;34127;47.412;9.730;2023-09-30T10:39:57;15.70;;;6.70;;
48317;SDS011;34127;47.412;9.730;2023-09-30T10:50:52;16.85;;;6.85;;
48317;SDS011;34127;47.412;9.730;2023-09-30T10:53:22;16.42;;;6.95;;
48317;SDS011;34127;47.412;9.730;2023-09-30T10:55:55;18.25;;;7.32;;
48317;SDS011;34127;47.412;9.730;2023-09-30T10:58:38;18.58;;;7.75;;
48317;SDS011;34127;47.412;9.730;2023-09-30T11:01:04;18.38;;;7.35;;
48317;SDS011;34127;47.412;9.730;2023-09-30T11:03:30;18.02;;;7.13;;
48317;SDS011;34127;47.412;9.730;2023-09-30T11:05:56;17.33;;;7.15;;
48317;SDS011;34127;47.412;9.730;2023-09-30T11:08:23;14.77;;;6.93;;
48317;SDS011;34127;47.412;9.730;2023-09-30T11:10:49;18.08;;;7.03;;
48317;SDS011;34127;47.412;9.730;2023-09-30T11:13:16;20.13;;;8.45;;
48317;SDS011;34127;47.412;9.730;2023-09-30T11:15:46;19.20;;;7.97;;
48317;SDS011;34127;47.412;9.730;2023-09-30T11:18:15;18.20;;;7.85;;
48317;SDS011;34127;47.412;9.730;2023-09-30T11:20:42;16.35;;;6.82;;
48317;SDS011;34127;47.412;9.730;2023-09-30T11:23:09;17.25;;;7.25;;
48317;SDS011;34127;47.412;9.730;2023-09-30T11:25:36;18.67;;;7.78;;
48317;SDS011;34127;47.412;9.730;2023-09-30T11:28:18;16.02;;;7.55;;
48317;SDS011;34127;47.412;9.730;2023-09-30T11:31:00;17.70;;;7.65;;
48317;SDS011;34127;47.412;9.730;2023-09-30T11:33:27;18.08;;;7.90;;
48317;SDS011;34127;47.412;9.730;2023-09-30T11:36:06;18.50;;;7.22;;
48317;SDS011;34127;47.412;9.730;2023-09-30T11:38:34;19.65;;;7.38;;
48317;SDS011;34127;47.412;9.730;2023-09-30T11:41:04;18.20;;;7.75;;
48317;SDS011;34127;47.412;9.730;2023-09-30T11:43:32;17.38;;;6.97;;
48317;SDS011;34127;47.412;9.730;2023-09-30T11:46:08;16.48;;;7.00;;
48317;SDS011;34127;47.412;9.730;2023-09-30T11:48:36;16.55;;;7.63;;
48317;SDS011;34127;47.412;9.730;2023-09-30T11:51:02;18.83;;;7.50;;
48317;SDS011;34127;47.412;9.730;2023-09-30T11:53:29;17.45;;;7.20;;
48317;SDS011;34127;47.412;9.730;2023-09-30T11:55:58;18.67;;;7.10;;
48317;SDS011;34127;47.412;9.730;2023-09-30T11:58:27;17.98;;;7.13;;
48317;SDS011;34127;47.412;9.730;2023-09-30T12:00:53;19.48;;;6.97;;
48317;SDS011;34127;47.412;9.730;2023-09-30T12:03:20;17.75;;;7.47;;
48317;SDS011;34127;47.412;9.730;2023-09-30T12:05:46;18.42;;;7.65;;
48317;SDS011;34127;47.412;9.730;2023-09-30T12:08:13;17.63;;;7.57;;
48317;SDS011;34127;47.412;9.730;2023-09-30T12:10:39;18.50;;;6.65;;
48317;SDS011;34127;47.412;9.730;2023-09-30T12:13:06;18.23;;;7.65;;
48317;SDS011;34127;47.412;9.730;2023-09-30T12:15:32;21.00;;;7.80;;
48317;SDS011;34127;47.412;9.730;2023-09-30T12:17:58;18.90;;;8.32;;
48317;SDS011;34127;47.412;9.730;2023-09-30T12:20:24;16.35;;;7.18;;
48317;SDS011;34127;47.412;9.730;2023-09-30T12:22:51;19.02;;;7.50;;
48317;SDS011;34127;47.412;9.730;2023-09-30T12:25:18;20.13;;;8.70;;
48317;SDS011;34127;47.412;9.730;2023-09-30T12:27:47;17.00;;;7.53;;
48317;SDS011;34127;47.412;9.730;2023-09-30T12:30:13;17.88;;;7.80;;
48317;SDS011;34127;47.412;9.730;2023-09-30T12:32:39;18.95;;;7.60;;
48317;SDS011;34127;47.412;9.730;2023-09-30T12:35:06;19.38;;;6.93;;
48317;SDS011;34127;47.412;9.730;2023-09-30T12:37:32;16.55;;;7.57;;
48317;SDS011;34127;47.412;9.730;2023-09-30T12:39:58;18.35;;;7.75;;
48317;SDS011;34127;47.412;9.730;2023-09-30T12:42:24;20.20;;;7.53;;
48317;SDS011;34127;47.412;9.730;2023-09-30T12:44:50;15.20;;;6.82;;
48317;SDS011;34127;47.412;9.730;2023-09-30T12:47:17;22.17;;;7.63;;
48317;SDS011;34127;47.412;9.730;2023-09-30T12:49:44;18.50;;;7.35;;
48317;SDS011;34127;47.412;9.730;2023-09-30T12:52:10;16.08;;;6.65;;
48317;SDS011;34127;47.412;9.730;2023-09-30T12:54:36;18.20;;;7.57;;
48317;SDS011;34127;47.412;9.730;2023-09-30T12:57:02;17.42;;;7.60;;
48317;SDS011;34127;47.412;9.730;2023-09-30T12:59:29;16.98;;;7.18;;
48317;SDS011;34127;47.412;9.730;2023-09-30T13:01:55;19.63;;;8.07;;
48317;SDS011;34127;47.412;9.730;2023-09-30T13:04:21;19.13;;;7.65;;
48317;SDS011;34127;47.412;9.730;2023-09-30T13:06:48;16.42;;;7.70;;
48317;SDS011;34127;47.412;9.730;2023-09-30T13:09:15;19.08;;;7.63;;
48317;SDS011;34127;47.412;9.730;2023-09-30T13:11:41;19.75;;;7.65;;
48317;SDS011;34127;47.412;9.730;2023-09-30T13:14:07;20.77;;;8.27;;
48317;SDS011;34127;47.412;9.730;2023-09-30T13:16:33;19.70;;;7.88;;
48317;SDS011;34127;47.412;9.730;2023-09-30T13:18:59;17.05;;;7.93;;
48317;SDS011;34127;47.412;9.730;2023-09-30T13:21:26;18.90;;;7.75;;
48317;SDS011;34127;47.412;9.730;2023-09-30T13:23:56;17.27;;;7.82;;
48317;SDS011;34127;47.412;9.730;2023-09-30T13:26:22;15.70;;;6.88;;
48317;SDS011;34127;47.412;9.730;2023-09-30T13:28:48;23.10;;;7.13;;
48317;SDS011;34127;47.412;9.730;2023-09-30T13:31:14;17.33;;;7.68;;
48317;SDS011;34127;47.412;9.730;2023-09-30T13:33:40;20.38;;;8.13;;
48317;SDS011;34127;47.412;9.730;2023-09-30T13:36:07;18.45;;;8.35;;
48317;SDS011;34127;47.412;9.730;2023-09-30T13:38:33;18.88;;;7.35;;
48317;SDS011;34127;47.412;9.730;2023-09-30T13:40:59;19.60;;;8.48;;
48317;SDS011;34127;47.412;9.730;2023-09-30T13:43:26;19.75;;;8.40;;
48317;SDS011;34127;47.412;9.730;2023-09-30T13:45:52;17.45;;;7.63;;
48317;SDS011;34127;47.412;9.730;2023-09-30T13:48:19;18.58;;;8.13;;
48317;SDS011;34127;47.412;9.730;2023-09-30T13:50:45;16.33;;;7.22;;
48317;SDS011;34127;47.412;9.730;2023-09-30T13:53:11;17.15;;;7.35;;
48317;SDS011;34127;47.412;9.730;2023-09-30T13:55:38;18.52;;;7.97;;
48317;SDS011;34127;47.412;9.730;2023-09-30T13:58:04;17.85;;;7.78;;
48317;SDS011;34127;47.412;9.730;2023-09-30T14:00:30;18.40;;;7.93;;
48317;SDS011;34127;47.412;9.730;2023-09-30T14:02:56;19.48;;;8.30;;
48317;SDS011;34127;47.412;9.730;2023-09-30T14:05:24;20.20;;;8.88;;
48317;SDS011;34127;47.412;9.730;2023-09-30T14:07:50;17.20;;;7.78;;
48317;SDS011;34127;47.412;9.730;2023-09-30T14:10:16;20.63;;;8.15;;
48317;SDS011;34127;47.412;9.730;2023-09-30T14:12:43;16.90;;;7.65;;
48317;SDS011;34127;47.412;9.730;2023-09-30T14:15:10;17.55;;;7.28;;
48317;SDS011;34127;47.412;9.730;2023-09-30T14:17:36;16.35;;;7.20;;
48317;SDS011;34127;47.412;9.730;2023-09-30T14:20:02;21.63;;;8.48;;
48317;SDS011;34127;47.412;9.730;2023-09-30T14:22:30;21.20;;;8.48;;
48317;SDS011;34127;47.412;9.730;2023-09-30T14:24:56;17.58;;;6.95;;
48317;SDS011;34127;47.412;9.730;2023-09-30T14:27:22;19.60;;;7.30;;
48317;SDS011;34127;47.412;9.730;2023-09-30T14:29:48;18.88;;;7.80;;
48317;SDS011;34127;47.412;9.730;2023-09-30T14:32:15;15.27;;;7.45;;
48317;SDS011;34127;47.412;9.730;2023-09-30T14:34:41;16.30;;;6.70;;
48317;SDS011;34127;47.412;9.730;2023-09-30T14:37:07;19.30;;;7.18;;
48317;SDS011;34127;47.412;9.730;2023-09-30T14:39:33;16.48;;;7.57;;
48317;SDS011;34127;47.412;9.730;2023-09-30T14:42:00;17.60;;;7.18;;
48317;SDS011;34127;47.412;9.730;2023-09-30T14:44:26;19.10;;;7.40;;
48317;SDS011;34127;47.412;9.730;2023-09-30T14:46:52;18.50;;;7.85;;